sensor_id;sensor_type;location;lat;lon;timestamp;P1;durP1;ratioP1;P2;durP2;ratioP2
66603;SDS011;53460;39.612;8.822;2023-05-10T00:00:10;5.60;;;3.53;;
66603;SDS011;53460;39.612;8.822;2023-05-10T00:02:39;5.75;;;3.22;;
66603;SDS011;53460;39.612;8.822;2023-05-10T00:05:05;7.45;;;3.33;;
66603;SDS011;53460;39.612;8.822;2023-05-10T00:07:31;6.68;;;3.33;;
66603;SDS011;53460;39.612;8.822;2023-05-10T00:09:56;4.10;;;2.78;;
66603;SDS011;53460;39.612;8.822;2023-05-10T00:12:22;4.35;;;3.13;;
66603;SDS011;53460;39.612;8.822;2023-05-10T00:14:47;6.70;;;3.03;;
66603;SDS011;53460;39.612;8.822;2023-05-10T00:17:13;6.60;;;3.33;;
66603;SDS011;53460;39.612;8.822;2023-05-10T00:19:38;6.70;;;3.17;;
66603;SDS011;53460;39.612;8.822;2023-05-10T00:22:04;7.65;;;3.35;;
66603;SDS011;53460;39.612;8.822;2023-05-10T00:24:29;8.13;;;3.20;;
66603;SDS011;53460;39.612;8.822;2023-05-10T00:26:55;6.28;;;3.70;;
66603;SDS011;53460;39.612;8.822;2023-05-10T00:29:20;8.48;;;3.22;;
66603;SDS011;53460;39.612;8.822;2023-05-10T00:31:46;6.78;;;3.58;;
66603;SDS011;53460;39.612;8.822;2023-05-10T00:34:11;6.03;;;3.55;;
66603;SDS011;53460;39.612;8.822;2023-05-10T00:36:37;4.88;;;3.15;;
66603;SDS011;53460;39.612;8.822;2023-05-10T00:39:02;11.27;;;3.65;;
66603;SDS011;53460;39.612;8.822;2023-05-10T00:41:29;4.88;;;3.13;;
66603;SDS011;53460;39.612;8.822;2023-05-10T00:43:58;8.20;;;3.33;;
66603;SDS011;53460;39.612;8.822;2023-05-10T00:46:23;6.75;;;3.53;;
66603;SDS011;53460;39.612;8.822;2023-05-10T00:48:49;6.15;;;2.90;;
66603;SDS011;53460;39.612;8.822;2023-05-10T00:51:15;4.50;;;2.60;;
66603;SDS011;53460;39.612;8.822;2023-05-10T00:53:40;4.22;;;3.22;;
66603;SDS011;53460;39.612;8.822;2023-05-10T00:56:06;7.63;;;3.55;;
66603;SDS011;53460;39.612;8.822;2023-05-10T00:58:32;10.48;;;4.13;;
66603;SDS011;53460;39.612;8.822;2023-05-10T01:00:58;7.97;;;3.35;;
66603;SDS011;53460;39.612;8.822;2023-05-10T01:03:24;6.35;;;3.53;;
66603;SDS011;53460;39.612;8.822;2023-05-10T01:05:50;5.45;;;3.20;;
66603;SDS011;53460;39.612;8.822;2023-05-10T01:08:17;7.90;;;3.50;;
66603;SDS011;53460;39.612;8.822;2023-05-10T01:10:42;6.40;;;3.35;;
66603;SDS011;53460;39.612;8.822;2023-05-10T01:13:08;6.95;;;3.55;;
66603;SDS011;53460;39.612;8.822;2023-05-10T01:15:34;6.05;;;3.20;;
66603;SDS011;53460;39.612;8.822;2023-05-10T01:18:00;6.68;;;3.40;;
66603;SDS011;53460;39.612;8.822;2023-05-10T01:20:26;7.75;;;3.42;;
66603;SDS011;53460;39.612;8.822;2023-05-10T01:43:21;5.18;;;2.92;;
66603;SDS011;53460;39.612;8.822;2023-05-10T01:45:54;4.78;;;2.72;;
66603;SDS011;53460;39.612;8.822;2023-05-10T01:48:23;5.50;;;2.92;;
66603;SDS011;53460;39.612;8.822;2023-05-10T01:50:49;7.40;;;2.70;;
66603;SDS011;53460;39.612;8.822;2023-05-10T01:53:17;4.88;;;2.60;;
66603;SDS011;53460;39.612;8.822;2023-05-10T01:55:47;6.28;;;3.00;;
66603;SDS011;53460;39.612;8.822;2023-05-10T01:58:15;3.85;;;2.75;;
66603;SDS011;53460;39.612;8.822;2023-05-10T02:00:44;4.88;;;2.90;;
66603;SDS011;53460;39.612;8.822;2023-05-10T02:03:10;7.28;;;2.85;;
66603;SDS011;53460;39.612;8.822;2023-05-10T02:05:36;5.72;;;3.28;;
66603;SDS011;53460;39.612;8.822;2023-05-10T02:08:03;8.05;;;3.00;;
66603;SDS011;53460;39.612;8.822;2023-05-10T02:10:31;5.65;;;3.17;;
66603;SDS011;53460;39.612;8.822;2023-05-10T02:12:58;7.60;;;3.22;;
66603;SDS011;53460;39.612;8.822;2023-05-10T02:15:24;4.30;;;2.65;;
66603;SDS011;53460;39.612;8.822;2023-05-10T02:17:52;7.93;;;2.60;;
66603;SDS011;53460;39.612;8.822;2023-05-10T02:20:19;9.43;;;3.08;;
66603;SDS011;53460;39.612;8.822;2023-05-10T02:22:45;6.20;;;2.85;;
66603;SDS011;53460;39.612;8.822;2023-05-10T02:25:12;5.78;;;2.58;;
66603;SDS011;53460;39.612;8.822;2023-05-10T02:27:38;4.47;;;2.28;;
66603;SDS011;53460;39.612;8.822;2023-05-10T02:30:07;6.28;;;2.80;;
66603;SDS011;53460;39.612;8.822;2023-05-10T02:32:33;6.00;;;2.53;;
66603;SDS011;53460;39.612;8.822;2023-05-10T02:34:59;7.32;;;2.40;;
66603;SDS011;53460;39.612;8.822;2023-05-10T02:37:25;8.05;;;2.60;;
66603;SDS011;53460;39.612;8.822;2023-05-10T02:39:52;5.47;;;2.50;;
66603;SDS011;53460;39.612;8.822;2023-05-10T02:42:19;4.00;;;2.38;;
66603;SDS011;53460;39.612;8.822;2023-05-10T02:44:45;5.30;;;2.50;;
66603;SDS011;53460;39.612;8.822;2023-05-10T02:47:14;9.85;;;2.40;;
66603;SDS011;53460;39.612;8.822;2023-05-10T02:49:39;6.03;;;3.13;;
66603;SDS011;53460;39.612;8.822;2023-05-10T02:52:05;7.35;;;2.95;;
66603;SDS011;53460;39.612;8.822;2023-05-10T02:54:33;7.93;;;2.70;;
66603;SDS011;53460;39.612;8.822;2023-05-10T02:56:59;7.03;;;2.53;;
66603;SDS011;53460;39.612;8.822;2023-05-10T02:59:26;6.63;;;2.50;;
66603;SDS011;53460;39.612;8.822;2023-05-10T03:01:51;6.85;;;2.40;;
66603;SDS011;53460;39.612;8.822;2023-05-10T03:04:17;4.15;;;1.95;;
66603;SDS011;53460;39.612;8.822;2023-05-10T03:06:43;4.18;;;1.85;;
66603;SDS011;53460;39.612;8.822;2023-05-10T03:09:09;4.38;;;2.35;;
66603;SDS011;53460;39.612;8.822;2023-05-10T03:14:13;6.28;;;2.40;;
66603;SDS011;53460;39.612;8.822;2023-05-10T03:16:42;5.10;;;2.08;;
66603;SDS011;53460;39.612;8.822;2023-05-10T03:19:56;5.80;;;1.98;;
66603;SDS011;53460;39.612;8.822;2023-05-10T03:21:57;4.82;;;2.17;;
66603;SDS011;53460;39.612;8.822;2023-05-10T03:24:24;7.60;;;2.00;;
66603;SDS011;53460;39.612;8.822;2023-05-10T03:26:53;5.68;;;2.20;;
66603;SDS011;53460;39.612;8.822;2023-05-10T03:29:20;6.10;;;2.55;;
66603;SDS011;53460;39.612;8.822;2023-05-10T03:31:47;4.82;;;2.42;;
66603;SDS011;53460;39.612;8.822;2023-05-10T03:34:13;5.47;;;2.20;;
66603;SDS011;53460;39.612;8.822;2023-05-10T03:36:39;5.22;;;1.95;;
66603;SDS011;53460;39.612;8.822;2023-05-10T03:39:04;5.90;;;2.63;;
66603;SDS011;53460;39.612;8.822;2023-05-10T03:41:30;6.50;;;2.45;;
66603;SDS011;53460;39.612;8.822;2023-05-10T03:43:55;5.95;;;2.30;;
66603;SDS011;53460;39.612;8.822;2023-05-10T03:46:21;4.65;;;2.13;;
66603;SDS011;53460;39.612;8.822;2023-05-10T03:48:46;5.13;;;2.28;;
66603;SDS011;53460;39.612;8.822;2023-05-10T03:51:12;8.10;;;2.05;;
66603;SDS011;53460;39.612;8.822;2023-05-10T03:53:38;6.15;;;2.13;;
66603;SDS011;53460;39.612;8.822;2023-05-10T03:56:04;5.68;;;2.05;;
66603;SDS011;53460;39.612;8.822;2023-05-10T03:58:30;4.57;;;1.88;;
66603;SDS011;53460;39.612;8.822;2023-05-10T04:00:55;2.80;;;1.60;;
66603;SDS011;53460;39.612;8.822;2023-05-10T04:03:21;5.78;;;1.90;;
66603;SDS011;53460;39.612;8.822;2023-05-10T04:05:46;2.10;;;1.42;;
66603;SDS011;53460;39.612;8.822;2023-05-10T04:08:12;3.38;;;1.77;;
66603;SDS011;53460;39.612;8.822;2023-05-10T04:10:37;5.65;;;1.63;;
66603;SDS011;53460;39.612;8.822;2023-05-10T04:13:03;5.65;;;1.80;;
66603;SDS011;53460;39.612;8.822;2023-05-10T04:15:28;3.95;;;1.85;;
66603;SDS011;53460;39.612;8.822;2023-05-10T04:17:53;5.75;;;1.73;;
66603;SDS011;53460;39.612;8.822;2023-05-10T04:20:19;5.55;;;2.10;;
66603;SDS011;53460;39.612;8.822;2023-05-10T04:22:44;7.32;;;2.25;;
66603;SDS011;53460;39.612;8.822;2023-05-10T04:25:10;6.47;;;2.10;;
66603;SDS011;53460;39.612;8.822;2023-05-10T04:27:36;5.72;;;2.00;;
66603;SDS011;53460;39.612;8.822;2023-05-10T04:30:01;4.70;;;1.60;;
66603;SDS011;53460;39.612;8.822;2023-05-10T04:32:27;4.13;;;1.60;;
66603;SDS011;53460;39.612;8.822;2023-05-10T04:34:53;9.73;;;1.60;;
66603;SDS011;53460;39.612;8.822;2023-05-10T04:37:18;7.70;;;1.95;;
66603;SDS011;53460;39.612;8.822;2023-05-10T04:39:44;9.45;;;1.80;;
66603;SDS011;53460;39.612;8.822;2023-05-10T04:42:09;5.55;;;2.15;;
66603;SDS011;53460;39.612;8.822;2023-05-10T04:44:35;8.68;;;1.75;;
66603;SDS011;53460;39.612;8.822;2023-05-10T04:47:01;4.55;;;1.48;;
66603;SDS011;53460;39.612;8.822;2023-05-10T04:49:28;5.95;;;1.70;;
66603;SDS011;53460;39.612;8.822;2023-05-10T04:51:53;3.85;;;1.65;;
66603;SDS011;53460;39.612;8.822;2023-05-10T04:54:19;8.70;;;2.00;;
66603;SDS011;53460;39.612;8.822;2023-05-10T04:56:44;5.53;;;1.55;;
66603;SDS011;53460;39.612;8.822;2023-05-10T04:59:09;3.72;;;1.33;;
66603;SDS011;53460;39.612;8.822;2023-05-10T05:01:35;6.72;;;1.73;;
66603;SDS011;53460;39.612;8.822;2023-05-10T05:04:01;4.20;;;1.40;;
66603;SDS011;53460;39.612;8.822;2023-05-10T05:06:26;3.67;;;1.33;;
66603;SDS011;53460;39.612;8.822;2023-05-10T05:08:52;5.07;;;1.45;;
66603;SDS011;53460;39.612;8.822;2023-05-10T05:11:18;3.70;;;1.42;;
66603;SDS011;53460;39.612;8.822;2023-05-10T05:13:43;4.53;;;1.08;;
66603;SDS011;53460;39.612;8.822;2023-05-10T05:16:09;3.72;;;1.58;;
66603;SDS011;53460;39.612;8.822;2023-05-10T05:18:35;5.38;;;1.58;;
66603;SDS011;53460;39.612;8.822;2023-05-10T05:21:00;5.30;;;1.15;;
66603;SDS011;53460;39.612;8.822;2023-05-10T05:23:26;4.68;;;1.50;;
66603;SDS011;53460;39.612;8.822;2023-05-10T05:25:52;4.63;;;1.60;;
66603;SDS011;53460;39.612;8.822;2023-05-10T05:28:18;6.85;;;1.70;;
66603;SDS011;53460;39.612;8.822;2023-05-10T05:30:43;6.38;;;1.52;;
66603;SDS011;53460;39.612;8.822;2023-05-10T05:33:09;3.63;;;1.50;;
66603;SDS011;53460;39.612;8.822;2023-05-10T05:35:35;8.40;;;2.30;;
66603;SDS011;53460;39.612;8.822;2023-05-10T05:38:00;5.55;;;1.70;;
66603;SDS011;53460;39.612;8.822;2023-05-10T05:40:26;9.57;;;1.52;;
66603;SDS011;53460;39.612;8.822;2023-05-10T05:42:51;8.50;;;1.83;;
66603;SDS011;53460;39.612;8.822;2023-05-10T05:45:17;5.07;;;1.70;;
66603;SDS011;53460;39.612;8.822;2023-05-10T05:47:42;8.77;;;2.60;;
66603;SDS011;53460;39.612;8.822;2023-05-10T05:50:08;7.97;;;2.05;;
66603;SDS011;53460;39.612;8.822;2023-05-10T05:52:33;8.23;;;1.92;;
66603;SDS011;53460;39.612;8.822;2023-05-10T05:54:59;4.22;;;1.65;;
66603;SDS011;53460;39.612;8.822;2023-05-10T05:57:25;6.65;;;1.92;;
66603;SDS011;53460;39.612;8.822;2023-05-10T05:59:51;6.70;;;2.08;;
66603;SDS011;53460;39.612;8.822;2023-05-10T06:02:17;6.15;;;1.90;;
66603;SDS011;53460;39.612;8.822;2023-05-10T06:04:43;4.63;;;1.85;;
66603;SDS011;53460;39.612;8.822;2023-05-10T06:07:08;3.72;;;1.70;;
66603;SDS011;53460;39.612;8.822;2023-05-10T06:09:34;7.05;;;2.13;;
66603;SDS011;53460;39.612;8.822;2023-05-10T06:12:00;5.63;;;1.83;;
66603;SDS011;53460;39.612;8.822;2023-05-10T06:14:25;6.68;;;1.60;;
66603;SDS011;53460;39.612;8.822;2023-05-10T06:16:51;3.45;;;1.63;;
66603;SDS011;53460;39.612;8.822;2023-05-10T06:19:16;8.00;;;2.17;;
66603;SDS011;53460;39.612;8.822;2023-05-10T06:21:42;6.38;;;2.53;;
66603;SDS011;53460;39.612;8.822;2023-05-10T06:24:07;6.32;;;1.90;;
66603;SDS011;53460;39.612;8.822;2023-05-10T06:26:33;4.80;;;1.40;;
66603;SDS011;53460;39.612;8.822;2023-05-10T06:28:59;5.88;;;1.30;;
66603;SDS011;53460;39.612;8.822;2023-05-10T06:31:24;6.32;;;1.70;;
66603;SDS011;53460;39.612;8.822;2023-05-10T06:33:50;4.97;;;1.38;;
66603;SDS011;53460;39.612;8.822;2023-05-10T06:36:16;6.38;;;1.40;;
66603;SDS011;53460;39.612;8.822;2023-05-10T06:38:41;7.28;;;1.50;;
66603;SDS011;53460;39.612;8.822;2023-05-10T06:41:06;4.95;;;1.35;;
66603;SDS011;53460;39.612;8.822;2023-05-10T06:43:32;6.18;;;1.48;;
66603;SDS011;53460;39.612;8.822;2023-05-10T06:45:57;5.65;;;1.50;;
66603;SDS011;53460;39.612;8.822;2023-05-10T06:48:23;4.72;;;1.50;;
66603;SDS011;53460;39.612;8.822;2023-05-10T06:50:49;5.63;;;1.60;;
66603;SDS011;53460;39.612;8.822;2023-05-10T06:53:14;8.30;;;1.83;;
66603;SDS011;53460;39.612;8.822;2023-05-10T06:55:40;5.82;;;1.42;;
66603;SDS011;53460;39.612;8.822;2023-05-10T06:58:06;7.15;;;1.40;;
66603;SDS011;53460;39.612;8.822;2023-05-10T07:00:31;6.70;;;1.45;;
66603;SDS011;53460;39.612;8.822;2023-05-10T07:02:57;4.88;;;1.38;;
66603;SDS011;53460;39.612;8.822;2023-05-10T07:05:23;7.95;;;1.70;;
66603;SDS011;53460;39.612;8.822;2023-05-10T07:07:49;6.93;;;2.08;;
66603;SDS011;53460;39.612;8.822;2023-05-10T07:10:14;7.78;;;2.00;;
66603;SDS011;53460;39.612;8.822;2023-05-10T07:12:40;8.90;;;1.92;;
66603;SDS011;53460;39.612;8.822;2023-05-10T07:15:05;7.18;;;1.65;;
66603;SDS011;53460;39.612;8.822;2023-05-10T07:17:31;5.35;;;1.20;;
66603;SDS011;53460;39.612;8.822;2023-05-10T07:19:58;9.90;;;2.10;;
66603;SDS011;53460;39.612;8.822;2023-05-10T07:22:24;7.50;;;1.73;;
66603;SDS011;53460;39.612;8.822;2023-05-10T07:24:49;6.85;;;2.13;;
66603;SDS011;53460;39.612;8.822;2023-05-10T07:27:15;5.15;;;1.60;;
66603;SDS011;53460;39.612;8.822;2023-05-10T07:29:40;7.88;;;1.92;;
66603;SDS011;53460;39.612;8.822;2023-05-10T07:32:06;6.68;;;1.65;;
66603;SDS011;53460;39.612;8.822;2023-05-10T07:34:31;9.07;;;2.05;;
66603;SDS011;53460;39.612;8.822;2023-05-10T07:37:00;6.38;;;1.75;;
66603;SDS011;53460;39.612;8.822;2023-05-10T07:39:28;7.30;;;1.88;;
66603;SDS011;53460;39.612;8.822;2023-05-10T07:41:54;10.82;;;1.80;;
66603;SDS011;53460;39.612;8.822;2023-05-10T07:44:20;4.88;;;1.50;;
66603;SDS011;53460;39.612;8.822;2023-05-10T07:46:45;5.32;;;1.77;;
66603;SDS011;53460;39.612;8.822;2023-05-10T07:49:11;7.57;;;1.48;;
66603;SDS011;53460;39.612;8.822;2023-05-10T07:51:37;11.85;;;1.70;;
66603;SDS011;53460;39.612;8.822;2023-05-10T07:54:02;6.30;;;1.60;;
66603;SDS011;53460;39.612;8.822;2023-05-10T07:56:30;7.25;;;1.67;;
66603;SDS011;53460;39.612;8.822;2023-05-10T07:58:57;9.07;;;1.80;;
66603;SDS011;53460;39.612;8.822;2023-05-10T08:01:22;8.48;;;1.85;;
66603;SDS011;53460;39.612;8.822;2023-05-10T08:03:48;7.13;;;1.80;;
66603;SDS011;53460;39.612;8.822;2023-05-10T08:06:14;5.80;;;1.70;;
66603;SDS011;53460;39.612;8.822;2023-05-10T08:08:40;6.13;;;2.08;;
66603;SDS011;53460;39.612;8.822;2023-05-10T08:11:06;9.52;;;2.05;;
66603;SDS011;53460;39.612;8.822;2023-05-10T08:13:31;7.88;;;2.17;;
66603;SDS011;53460;39.612;8.822;2023-05-10T08:15:57;8.55;;;2.20;;
66603;SDS011;53460;39.612;8.822;2023-05-10T08:18:22;7.07;;;2.30;;
66603;SDS011;53460;39.612;8.822;2023-05-10T08:20:48;5.60;;;1.70;;
66603;SDS011;53460;39.612;8.822;2023-05-10T08:23:13;5.85;;;1.98;;
66603;SDS011;53460;39.612;8.822;2023-05-10T08:25:39;10.10;;;2.10;;
66603;SDS011;53460;39.612;8.822;2023-05-10T08:28:04;8.88;;;2.33;;
66603;SDS011;53460;39.612;8.822;2023-05-10T08:30:30;7.82;;;2.40;;
66603;SDS011;53460;39.612;8.822;2023-05-10T08:32:55;8.40;;;2.40;;
66603;SDS011;53460;39.612;8.822;2023-05-10T08:35:20;5.93;;;1.92;;
66603;SDS011;53460;39.612;8.822;2023-05-10T08:37:46;9.13;;;2.35;;
66603;SDS011;53460;39.612;8.822;2023-05-10T08:40:11;9.80;;;2.10;;
66603;SDS011;53460;39.612;8.822;2023-05-10T08:42:39;11.82;;;2.45;;
66603;SDS011;53460;39.612;8.822;2023-05-10T08:45:07;8.00;;;2.17;;
66603;SDS011;53460;39.612;8.822;2023-05-10T08:47:33;7.88;;;2.15;;
66603;SDS011;53460;39.612;8.822;2023-05-10T08:50:00;21.25;;;2.67;;
66603;SDS011;53460;39.612;8.822;2023-05-10T08:52:25;12.45;;;2.22;;
66603;SDS011;53460;39.612;8.822;2023-05-10T08:54:51;14.20;;;2.45;;
66603;SDS011;53460;39.612;8.822;2023-05-10T08:57:17;10.73;;;2.92;;
66603;SDS011;53460;39.612;8.822;2023-05-10T08:59:44;13.00;;;2.90;;
66603;SDS011;53460;39.612;8.822;2023-05-10T09:02:09;15.35;;;2.70;;
66603;SDS011;53460;39.612;8.822;2023-05-10T09:04:35;9.35;;;2.38;;
66603;SDS011;53460;39.612;8.822;2023-05-10T09:07:01;10.32;;;2.72;;
66603;SDS011;53460;39.612;8.822;2023-05-10T09:09:26;11.60;;;2.45;;
66603;SDS011;53460;39.612;8.822;2023-05-10T09:11:52;9.48;;;2.83;;
66603;SDS011;53460;39.612;8.822;2023-05-10T09:14:18;10.40;;;3.42;;
66603;SDS011;53460;39.612;8.822;2023-05-10T09:16:44;9.05;;;2.65;;
66603;SDS011;53460;39.612;8.822;2023-05-10T09:19:10;10.13;;;2.20;;
66603;SDS011;53460;39.612;8.822;2023-05-10T09:21:35;12.27;;;2.53;;
66603;SDS011;53460;39.612;8.822;2023-05-10T09:24:05;10.48;;;2.00;;
66603;SDS011;53460;39.612;8.822;2023-05-10T09:26:31;8.38;;;2.67;;
66603;SDS011;53460;39.612;8.822;2023-05-10T09:28:57;10.32;;;2.92;;
66603;SDS011;53460;39.612;8.822;2023-05-10T09:31:22;11.55;;;2.92;;
66603;SDS011;53460;39.612;8.822;2023-05-10T09:33:50;12.02;;;2.78;;
66603;SDS011;53460;39.612;8.822;2023-05-10T09:36:16;11.45;;;2.92;;
66603;SDS011;53460;39.612;8.822;2023-05-10T09:38:44;11.57;;;3.13;;
66603;SDS011;53460;39.612;8.822;2023-05-10T09:41:17;15.00;;;2.30;;
66603;SDS011;53460;39.612;8.822;2023-05-10T09:43:43;11.75;;;3.00;;
66603;SDS011;53460;39.612;8.822;2023-05-10T09:46:09;8.32;;;2.05;;
66603;SDS011;53460;39.612;8.822;2023-05-10T09:48:39;10.02;;;2.58;;
66603;SDS011;53460;39.612;8.822;2023-05-10T09:51:06;9.85;;;2.70;;
66603;SDS011;53460;39.612;8.822;2023-05-10T09:53:32;8.48;;;2.60;;
66603;SDS011;53460;39.612;8.822;2023-05-10T09:55:57;15.88;;;4.95;;
66603;SDS011;53460;39.612;8.822;2023-05-10T09:58:22;9.98;;;2.90;;
66603;SDS011;53460;39.612;8.822;2023-05-10T10:00:48;10.80;;;2.83;;
66603;SDS011;53460;39.612;8.822;2023-05-10T10:03:17;14.73;;;3.40;;
66603;SDS011;53460;39.612;8.822;2023-05-10T10:05:42;12.25;;;3.22;;
66603;SDS011;53460;39.612;8.822;2023-05-10T10:08:09;8.77;;;2.55;;
66603;SDS011;53460;39.612;8.822;2023-05-10T10:10:34;9.75;;;3.75;;
66603;SDS011;53460;39.612;8.822;2023-05-10T10:13:00;9.98;;;2.75;;
66603;SDS011;53460;39.612;8.822;2023-05-10T10:15:26;12.38;;;3.97;;
66603;SDS011;53460;39.612;8.822;2023-05-10T10:17:52;11.20;;;2.90;;
66603;SDS011;53460;39.612;8.822;2023-05-10T10:20:18;8.73;;;3.45;;
66603;SDS011;53460;39.612;8.822;2023-05-10T10:22:43;10.15;;;2.55;;
66603;SDS011;53460;39.612;8.822;2023-05-10T10:25:13;9.32;;;2.45;;
66603;SDS011;53460;39.612;8.822;2023-05-10T10:33:06;10.10;;;2.75;;
66603;SDS011;53460;39.612;8.822;2023-05-10T10:35:36;11.63;;;2.65;;
66603;SDS011;53460;39.612;8.822;2023-05-10T10:38:02;17.35;;;2.28;;
66603;SDS011;53460;39.612;8.822;2023-05-10T10:40:31;11.02;;;3.03;;
66603;SDS011;53460;39.612;8.822;2023-05-10T10:42:57;12.23;;;3.58;;
66603;SDS011;53460;39.612;8.822;2023-05-10T10:45:23;15.35;;;3.42;;
66603;SDS011;53460;39.612;8.822;2023-05-10T10:47:53;8.82;;;3.20;;
66603;SDS011;53460;39.612;8.822;2023-05-10T10:50:42;11.45;;;3.53;;
66603;SDS011;53460;39.612;8.822;2023-05-10T10:53:11;10.77;;;3.58;;
66603;SDS011;53460;39.612;8.822;2023-05-10T10:55:44;15.68;;;3.80;;
66603;SDS011;53460;39.612;8.822;2023-05-10T10:58:10;14.75;;;2.97;;
66603;SDS011;53460;39.612;8.822;2023-05-10T11:00:53;19.75;;;3.08;;
66603;SDS011;53460;39.612;8.822;2023-05-10T11:03:33;12.73;;;3.50;;
66603;SDS011;53460;39.612;8.822;2023-05-10T11:05:59;10.18;;;3.22;;
66603;SDS011;53460;39.612;8.822;2023-05-10T11:08:30;11.50;;;3.58;;
66603;SDS011;53460;39.612;8.822;2023-05-10T11:16:09;15.90;;;3.22;;
66603;SDS011;53460;39.612;8.822;2023-05-10T11:18:35;13.57;;;3.35;;
66603;SDS011;53460;39.612;8.822;2023-05-10T11:21:01;10.90;;;3.30;;
66603;SDS011;53460;39.612;8.822;2023-05-10T11:23:52;10.73;;;3.35;;
66603;SDS011;53460;39.612;8.822;2023-05-10T11:26:16;10.80;;;3.17;;
66603;SDS011;53460;39.612;8.822;2023-05-10T11:28:42;18.08;;;4.25;;
66603;SDS011;53460;39.612;8.822;2023-05-10T11:31:08;13.77;;;3.50;;
66603;SDS011;53460;39.612;8.822;2023-05-10T11:36:29;11.82;;;3.25;;
66603;SDS011;53460;39.612;8.822;2023-05-10T11:38:56;11.50;;;3.63;;
66603;SDS011;53460;39.612;8.822;2023-05-10T11:41:22;13.85;;;3.47;;
66603;SDS011;53460;39.612;8.822;2023-05-10T11:43:51;12.35;;;3.40;;
66603;SDS011;53460;39.612;8.822;2023-05-10T11:46:18;15.05;;;3.72;;
66603;SDS011;53460;39.612;8.822;2023-05-10T11:48:45;11.70;;;3.50;;
66603;SDS011;53460;39.612;8.822;2023-05-10T11:51:11;16.40;;;3.55;;
66603;SDS011;53460;39.612;8.822;2023-05-10T11:53:37;8.05;;;2.90;;
66603;SDS011;53460;39.612;8.822;2023-05-10T11:56:06;15.45;;;3.83;;
66603;SDS011;53460;39.612;8.822;2023-05-10T11:58:32;12.98;;;3.55;;
66603;SDS011;53460;39.612;8.822;2023-05-10T12:00:58;13.15;;;3.83;;
66603;SDS011;53460;39.612;8.822;2023-05-10T12:03:24;11.88;;;3.42;;
66603;SDS011;53460;39.612;8.822;2023-05-10T12:05:50;16.10;;;3.25;;
66603;SDS011;53460;39.612;8.822;2023-05-10T12:08:19;11.65;;;3.25;;
66603;SDS011;53460;39.612;8.822;2023-05-10T12:10:45;10.40;;;3.22;;
66603;SDS011;53460;39.612;8.822;2023-05-10T12:13:14;15.50;;;3.92;;
66603;SDS011;53460;39.612;8.822;2023-05-10T12:15:39;16.95;;;3.75;;
66603;SDS011;53460;39.612;8.822;2023-05-10T12:18:05;13.70;;;3.03;;
66603;SDS011;53460;39.612;8.822;2023-05-10T12:20:30;11.32;;;3.25;;
66603;SDS011;53460;39.612;8.822;2023-05-10T12:22:56;10.60;;;3.28;;
66603;SDS011;53460;39.612;8.822;2023-05-10T12:25:24;19.83;;;3.97;;
66603;SDS011;53460;39.612;8.822;2023-05-10T12:27:55;11.50;;;3.10;;
66603;SDS011;53460;39.612;8.822;2023-05-10T12:30:27;11.82;;;4.10;;
66603;SDS011;53460;39.612;8.822;2023-05-10T12:35:18;12.68;;;3.80;;
66603;SDS011;53460;39.612;8.822;2023-05-10T12:37:50;14.55;;;4.00;;
66603;SDS011;53460;39.612;8.822;2023-05-10T12:40:15;16.45;;;3.83;;
66603;SDS011;53460;39.612;8.822;2023-05-10T12:42:41;15.57;;;3.42;;
66603;SDS011;53460;39.612;8.822;2023-05-10T12:45:07;13.20;;;3.60;;
66603;SDS011;53460;39.612;8.822;2023-05-10T12:47:33;11.90;;;3.22;;
66603;SDS011;53460;39.612;8.822;2023-05-10T12:49:59;12.23;;;3.38;;
66603;SDS011;53460;39.612;8.822;2023-05-10T12:52:25;10.63;;;3.08;;
66603;SDS011;53460;39.612;8.822;2023-05-10T12:54:51;11.50;;;3.45;;
66603;SDS011;53460;39.612;8.822;2023-05-10T12:57:17;11.23;;;3.53;;
66603;SDS011;53460;39.612;8.822;2023-05-10T12:59:42;16.17;;;3.25;;
66603;SDS011;53460;39.612;8.822;2023-05-10T13:02:08;11.80;;;3.60;;
66603;SDS011;53460;39.612;8.822;2023-05-10T13:04:33;10.27;;;3.47;;
66603;SDS011;53460;39.612;8.822;2023-05-10T13:06:59;11.23;;;4.20;;
66603;SDS011;53460;39.612;8.822;2023-05-10T13:09:25;13.27;;;3.22;;
66603;SDS011;53460;39.612;8.822;2023-05-10T13:11:51;13.27;;;3.10;;
66603;SDS011;53460;39.612;8.822;2023-05-10T13:14:18;12.18;;;3.55;;
66603;SDS011;53460;39.612;8.822;2023-05-10T13:16:45;15.18;;;4.10;;
66603;SDS011;53460;39.612;8.822;2023-05-10T13:19:12;11.13;;;2.90;;
66603;SDS011;53460;39.612;8.822;2023-05-10T13:21:37;6.97;;;2.90;;
66603;SDS011;53460;39.612;8.822;2023-05-10T13:24:03;10.55;;;2.97;;
66603;SDS011;53460;39.612;8.822;2023-05-10T13:26:28;10.05;;;3.20;;
66603;SDS011;53460;39.612;8.822;2023-05-10T13:28:54;9.13;;;3.15;;
66603;SDS011;53460;39.612;8.822;2023-05-10T13:31:20;9.38;;;2.90;;
66603;SDS011;53460;39.612;8.822;2023-05-10T13:33:46;9.82;;;3.30;;
66603;SDS011;53460;39.612;8.822;2023-05-10T13:36:11;13.48;;;3.20;;
66603;SDS011;53460;39.612;8.822;2023-05-10T13:38:37;8.82;;;3.13;;
66603;SDS011;53460;39.612;8.822;2023-05-10T13:41:02;13.95;;;3.72;;
66603;SDS011;53460;39.612;8.822;2023-05-10T13:43:29;9.98;;;2.83;;
66603;SDS011;53460;39.612;8.822;2023-05-10T13:45:54;11.25;;;3.40;;
66603;SDS011;53460;39.612;8.822;2023-05-10T13:48:20;16.63;;;3.13;;
66603;SDS011;53460;39.612;8.822;2023-05-10T13:50:46;6.15;;;2.58;;
66603;SDS011;53460;39.612;8.822;2023-05-10T13:53:12;15.25;;;3.70;;
66603;SDS011;53460;39.612;8.822;2023-05-10T13:55:37;16.40;;;4.05;;
66603;SDS011;53460;39.612;8.822;2023-05-10T13:58:03;11.52;;;3.25;;
66603;SDS011;53460;39.612;8.822;2023-05-10T14:00:29;10.10;;;2.65;;
66603;SDS011;53460;39.612;8.822;2023-05-10T14:02:54;12.20;;;3.17;;
66603;SDS011;53460;39.612;8.822;2023-05-10T14:05:20;9.70;;;2.90;;
66603;SDS011;53460;39.612;8.822;2023-05-10T14:07:45;12.60;;;2.60;;
66603;SDS011;53460;39.612;8.822;2023-05-10T14:10:11;11.43;;;2.78;;
66603;SDS011;53460;39.612;8.822;2023-05-10T14:12:36;10.48;;;3.42;;
66603;SDS011;53460;39.612;8.822;2023-05-10T14:15:02;10.65;;;3.42;;
66603;SDS011;53460;39.612;8.822;2023-05-10T14:17:28;15.43;;;3.17;;
66603;SDS011;53460;39.612;8.822;2023-05-10T14:19:53;10.43;;;2.80;;
66603;SDS011;53460;39.612;8.822;2023-05-10T14:22:19;8.95;;;2.95;;
66603;SDS011;53460;39.612;8.822;2023-05-10T14:24:44;14.20;;;3.00;;
66603;SDS011;53460;39.612;8.822;2023-05-10T14:27:12;11.07;;;3.13;;
66603;SDS011;53460;39.612;8.822;2023-05-10T14:29:37;8.70;;;2.63;;
66603;SDS011;53460;39.612;8.822;2023-05-10T14:32:03;13.25;;;3.20;;
66603;SDS011;53460;39.612;8.822;2023-05-10T14:34:28;17.17;;;3.83;;
66603;SDS011;53460;39.612;8.822;2023-05-10T14:36:54;12.73;;;3.55;;
66603;SDS011;53460;39.612;8.822;2023-05-10T14:39:20;10.90;;;3.17;;
66603;SDS011;53460;39.612;8.822;2023-05-10T14:41:45;10.35;;;3.67;;
66603;SDS011;53460;39.612;8.822;2023-05-10T14:44:12;8.88;;;2.97;;
66603;SDS011;53460;39.612;8.822;2023-05-10T14:46:37;7.90;;;2.40;;
66603;SDS011;53460;39.612;8.822;2023-05-10T14:49:03;13.93;;;3.35;;
66603;SDS011;53460;39.612;8.822;2023-05-10T14:51:29;12.25;;;3.03;;
66603;SDS011;53460;39.612;8.822;2023-05-10T14:53:54;10.05;;;3.20;;
66603;SDS011;53460;39.612;8.822;2023-05-10T14:56:20;9.43;;;2.58;;
66603;SDS011;53460;39.612;8.822;2023-05-10T14:58:46;10.13;;;2.58;;
66603;SDS011;53460;39.612;8.822;2023-05-10T15:01:12;8.88;;;2.75;;
66603;SDS011;53460;39.612;8.822;2023-05-10T15:03:37;9.93;;;2.88;;
66603;SDS011;53460;39.612;8.822;2023-05-10T15:06:03;17.02;;;3.60;;
66603;SDS011;53460;39.612;8.822;2023-05-10T15:08:29;7.43;;;3.00;;
66603;SDS011;53460;39.612;8.822;2023-05-10T15:10:54;7.32;;;2.50;;
66603;SDS011;53460;39.612;8.822;2023-05-10T15:13:21;11.48;;;2.75;;
66603;SDS011;53460;39.612;8.822;2023-05-10T15:15:46;10.43;;;3.00;;